Time;durP1;ratioP1;P1;durP2;ratioP2;P2;SDS_P1;SDS_P2;PMS_P1;PMS_P2;Temp;Humidity;BMP_temperature;BMP_pressure;BME280_temperature;BME280_humidity;BME280_pressure;Samples;Min_cycle;Max_cycle;Signal;HPM_P1;HPM_P2
2022/03/24 00:00:38;;;;;;;4.88;4.20;;;18.30;53.00;;;;;;4445092;32;20155;-73
2022/03/24 00:03:06;;;;;;;4.50;4.10;;;18.30;53.00;;;;;;4444500;32;20136;-73
2022/03/24 00:05:34;;;;;;;4.88;4.38;;;18.30;53.00;;;;;;4444841;32;20101;-73
2022/03/24 00:08:00;;;;;;;5.00;4.47;;;18.30;53.00;;;;;;4445149;32;20554;-73
2022/03/24 00:10:26;;;;;;;6.30;4.82;;;18.30;53.00;;;;;;4418031;32;20256;-73
2022/03/24 00:12:52;;;;;;;5.20;4.45;;;18.30;53.00;;;;;;4444689;32;20435;-73
2022/03/24 00:15:19;;;;;;;5.38;4.50;;;18.30;53.00;;;;;;4444819;32;20499;-73
2022/03/24 00:17:45;;;;;;;5.25;4.75;;;18.30;53.00;;;;;;4444542;32;20150;-74
2022/03/24 00:20:12;;;;;;;5.90;4.70;;;18.20;52.90;;;;;;4431113;32;20121;-73
2022/03/24 00:22:39;;;;;;;4.78;4.28;;;18.20;52.90;;;;;;4444612;32;20157;-73
2022/03/24 00:25:05;;;;;;;5.85;4.60;;;18.20;53.20;;;;;;4444820;32;20082;-73
2022/03/24 00:27:31;;;;;;;5.13;4.63;;;18.20;52.90;;;;;;4444540;32;20093;-73
2022/03/24 00:29:57;;;;;;;7.57;5.00;;;18.20;52.90;;;;;;4444771;32;20291;-73
2022/03/24 00:32:23;;;;;;;5.55;4.68;;;18.20;52.90;;;;;;4444376;32;20126;-74
2022/03/24 00:34:49;;;;;;;5.38;4.85;;;18.20;52.90;;;;;;4444754;32;20078;-73
2022/03/24 00:37:15;;;;;;;5.38;4.68;;;18.20;52.90;;;;;;4430851;32;20092;-73
2022/03/24 00:39:41;;;;;;;6.30;5.18;;;18.20;53.00;;;;;;4444443;32;20676;-73
2022/03/24 00:42:11;;;;;;;5.85;5.25;;;18.20;53.00;;;;;;4444735;32;20108;-73
2022/03/24 00:44:38;;;;;;;5.95;4.90;;;18.20;53.00;;;;;;4444307;32;20520;-73
2022/03/24 00:47:05;;;;;;;5.88;5.28;;;18.20;53.00;;;;;;4447465;32;20092;-73
2022/03/24 00:49:31;;;;;;;5.35;4.53;;;18.20;53.00;;;;;;4447684;32;20093;-73
2022/03/24 00:51:57;;;;;;;5.20;4.70;;;18.20;53.00;;;;;;4447842;32;20078;-73
2022/03/24 00:54:23;;;;;;;6.35;4.90;;;18.20;52.90;;;;;;4433804;32;20071;-73
2022/03/24 00:56:49;;;;;;;5.93;5.22;;;18.20;53.00;;;;;;4447704;32;20070;-73
2022/03/24 00:59:15;;;;;;;5.35;4.47;;;18.20;53.00;;;;;;4447604;32;20070;-73
2022/03/24 01:01:41;;;;;;;5.60;5.05;;;18.20;53.00;;;;;;4447519;32;20078;-73
2022/03/24 01:04:08;;;;;;;5.80;4.72;;;18.20;53.00;;;;;;4433253;32;20143;-73
2022/03/24 01:06:35;;;;;;;5.20;4.68;;;18.10;53.00;;;;;;4438301;32;20641;-74
2022/03/24 01:09:03;;;;;;;5.72;4.68;;;18.10;53.00;;;;;;4447666;32;20219;-73
2022/03/24 01:11:30;;;;;;;5.78;4.90;;;18.10;53.00;;;;;;4447603;32;20093;-73
2022/03/24 01:13:56;;;;;;;5.53;4.70;;;18.10;53.10;;;;;;4447417;32;20164;-73
2022/03/24 01:16:23;;;;;;;6.18;5.30;;;18.10;53.10;;;;;;4447581;32;20094;-73
2022/03/24 01:18:50;;;;;;;5.20;4.70;;;18.10;53.10;;;;;;4447557;32;20078;-73
2022/03/24 01:21:16;;;;;;;6.20;4.70;;;18.10;53.20;;;;;;4447350;32;20074;-73
2022/03/24 01:23:44;;;;;;;5.07;4.57;;;18.10;53.20;;;;;;4447029;32;20086;-73
2022/03/24 01:26:11;;;;;;;5.55;4.93;;;18.10;53.20;;;;;;4447027;32;20130;-73
2022/03/24 01:28:39;;;;;;;5.90;4.85;;;18.10;53.20;;;;;;4447312;32;20070;-73
2022/03/24 01:31:08;;;;;;;8.00;5.00;;;18.10;53.20;;;;;;4447389;32;20085;-73
2022/03/24 01:33:37;;;;;;;5.47;4.82;;;18.00;53.10;;;;;;4446879;32;20081;-74
2022/03/24 01:36:11;;;;;;;5.00;4.50;;;18.00;53.10;;;;;;4446939;32;20140;-73
2022/03/24 01:38:37;;;;;;;;;;;18.00;53.10;;;;;;4447637;32;20141;-73
2022/03/24 01:41:04;;;;;;;4.80;4.30;;;18.00;53.10;;;;;;4447058;32;19981;-74
2022/03/24 01:43:31;;;;;;;5.28;4.72;;;18.00;53.20;;;;;;4446936;32;20163;-73
2022/03/24 01:45:57;;;;;;;5.05;4.15;;;18.00;53.20;;;;;;4446052;32;20088;-73
2022/03/24 01:48:23;;;;;;;6.03;4.30;;;18.00;53.20;;;;;;4447085;32;20407;-73
2022/03/24 01:50:49;;;;;;;4.97;4.45;;;18.00;53.20;;;;;;4446926;32;20078;-73
2022/03/24 01:53:15;;;;;;;5.97;4.70;;;18.00;53.20;;;;;;4446923;32;20078;-73
2022/03/24 01:55:42;;;;;;;5.38;4.50;;;18.00;53.20;;;;;;4446735;32;20168;-73
2022/03/24 01:58:08;;;;;;;5.70;4.90;;;18.00;53.20;;;;;;4446853;32;20118;-73
2022/03/24 02:00:34;;;;;;;5.53;4.93;;;18.00;53.20;;;;;;4446560;32;20090;-73
2022/03/24 02:03:04;;;;;;;5.20;4.68;;;17.90;53.20;;;;;;4446401;32;20093;-73
2022/03/24 02:05:34;;;;;;;4.35;3.95;;;18.00;53.20;;;;;;4446212;32;20101;-73
2022/03/24 02:08:03;;;;;;;5.88;4.53;;;17.90;53.20;;;;;;4446515;32;20082;-73
2022/03/24 02:10:33;;;;;;;4.63;4.18;;;17.90;53.20;;;;;;4446760;32;20180;-73
2022/03/24 02:12:59;;;;;;;6.32;5.00;;;17.90;53.30;;;;;;4446605;32;20389;-73
2022/03/24 02:15:26;;;;;;;6.10;4.70;;;17.90;53.30;;;;;;4446567;32;20500;-73
2022/03/24 02:17:52;;;;;;;5.50;4.88;;;17.90;54.20;;;;;;4446751;32;20090;-73
2022/03/24 02:20:19;;;;;;;5.90;4.97;;;17.90;53.30;;;;;;4446166;32;20122;-73
2022/03/24 02:22:46;;;;;;;5.28;4.68;;;17.90;53.30;;;;;;4446318;32;20070;-74
2022/03/24 02:25:12;;;;;;;4.97;4.43;;;17.90;53.30;;;;;;4446576;32;20167;-73
2022/03/24 02:27:39;;;;;;;5.70;5.00;;;17.90;53.30;;;;;;4446582;32;20106;-73
2022/03/24 02:30:08;;;;;;;5.80;4.72;;;17.90;53.30;;;;;;4446465;32;20093;-73
2022/03/24 02:32:34;;;;;;;5.93;5.25;;;17.90;53.30;;;;;;4432083;32;20066;-74
2022/03/24 02:35:00;;;;;;;4.82;4.32;;;17.80;53.20;;;;;;4446377;32;20101;-73
2022/03/24 02:37:28;;;;;;;5.82;5.07;;;17.80;53.20;;;;;;4445909;32;20436;-73
2022/03/24 02:39:56;;;;;;;5.05;4.55;;;17.80;53.30;;;;;;4446196;32;20412;-73
2022/03/24 02:42:25;;;;;;;5.65;5.05;;;17.80;53.30;;;;;;4446162;32;20408;-73
2022/03/24 02:44:56;;;;;;;5.50;5.00;;;17.80;53.30;;;;;;4446092;32;20090;-73
2022/03/24 02:47:23;;;;;;;5.90;5.00;;;17.80;53.30;;;;;;4446254;32;20092;-73
2022/03/24 02:49:53;;;;;;;5.30;4.63;;;17.80;53.30;;;;;;4445971;32;20175;-74
2022/03/24 02:52:19;;;;;;;4.95;4.45;;;17.80;53.40;;;;;;4446284;32;20496;-73
2022/03/24 02:54:45;;;;;;;5.40;4.80;;;17.80;53.40;;;;;;4445717;32;20091;-73
2022/03/24 02:57:12;;;;;;;5.65;4.88;;;17.80;53.30;;;;;;4445983;32;20567;-73
2022/03/24 02:59:38;;;;;;;5.60;5.05;;;17.80;53.30;;;;;;4445733;32;20137;-73
2022/03/24 03:02:12;;;;;;;6.95;5.30;;;17.80;53.30;;;;;;4445291;32;20283;-73
2022/03/24 03:04:39;;;;;;;6.10;5.50;;;17.80;53.30;;;;;;4445448;32;20110;-73
2022/03/24 03:07:05;;;;;;;6.25;5.00;;;17.80;53.40;;;;;;4445649;32;20200;-73
2022/03/24 03:09:34;;;;;;;5.85;5.25;;;17.80;53.40;;;;;;4444971;32;20630;-73
2022/03/24 03:12:00;;;;;;;6.10;4.85;;;17.80;53.30;;;;;;4445568;32;20235;-74
2022/03/24 03:14:29;;;;;;;5.55;4.97;;;17.70;53.30;;;;;;4445666;32;20195;-74
2022/03/24 03:16:57;;;;;;;5.47;4.90;;;17.70;53.30;;;;;;4445254;32;20504;-73
2022/03/24 03:19:23;;;;;;;6.07;5.18;;;17.70;53.30;;;;;;4445853;32;20256;-73
2022/03/24 03:21:49;;;;;;;6.15;5.32;;;17.70;53.30;;;;;;4445594;32;20105;-74
2022/03/24 03:24:16;;;;;;;5.78;4.50;;;17.70;53.30;;;;;;4445590;32;20066;-73
2022/03/24 03:26:42;;;;;;;5.70;4.88;;;17.70;53.30;;;;;;4445633;32;20507;-74
2022/03/24 03:29:09;;;;;;;6.07;4.60;;;17.70;53.30;;;;;;4418585;32;20113;-73
2022/03/24 03:31:35;;;;;;;5.68;5.05;;;17.70;53.40;;;;;;4444529;32;20251;-73
2022/03/24 03:34:02;;;;;;;5.32;4.80;;;17.70;53.30;;;;;;4443682;32;20074;-73
2022/03/24 03:36:28;;;;;;;6.45;5.53;;;17.70;53.30;;;;;;4445027;32;20553;-74
2022/03/24 03:38:55;;;;;;;5.68;5.05;;;17.70;53.30;;;;;;4444359;32;20558;-74
2022/03/24 03:41:22;;;;;;;5.85;4.95;;;17.70;53.30;;;;;;4445262;32;20219;-73
2022/03/24 03:43:49;;;;;;;5.88;5.00;;;17.60;53.30;;;;;;4445249;32;20527;-73
2022/03/24 03:46:16;;;;;;;6.05;5.45;;;17.60;53.30;;;;;;4445245;32;20078;-73
2022/03/24 03:48:43;;;;;;;5.75;5.13;;;17.60;53.30;;;;;;4445670;32;20133;-74
2022/03/24 03:51:08;;;;;;;6.30;5.35;;;17.60;53.30;;;;;;4445309;32;20681;-74
2022/03/24 03:53:38;;;;;;;5.53;4.93;;;17.60;53.30;;;;;;4445215;32;20066;-73
2022/03/24 03:56:05;;;;;;;8.15;5.68;;;17.60;53.30;;;;;;4445101;32;20200;-74
2022/03/24 03:58:34;;;;;;;5.75;5.15;;;17.60;53.40;;;;;;4445069;32;20104;-73
2022/03/24 04:01:00;;;;;;;6.20;5.60;;;17.60;53.40;;;;;;4445196;32;20078;-74
2022/03/24 04:03:27;;;;;;;5.32;4.75;;;17.60;53.40;;;;;;4444562;32;20236;-73
2022/03/24 04:05:54;;;;;;;6.35;5.10;;;17.60;53.40;;;;;;4444900;32;20094;-73
2022/03/24 04:08:20;;;;;;;5.75;5.10;;;17.60;53.40;;;;;;4445130;32;20078;-74
2022/03/24 04:10:48;;;;;;;5.65;5.05;;;17.60;53.40;;;;;;4444922;32;20153;-73
2022/03/24 04:13:18;;;;;;;6.32;5.25;;;17.60;53.40;;;;;;4444846;32;20492;-74
2022/03/24 04:15:45;;;;;;;5.38;4.88;;;17.60;53.40;;;;;;4444927;32;20566;-74
2022/03/24 04:18:18;;;;;;;5.85;5.10;;;17.60;53.40;;;;;;4445140;32;20081;-74
2022/03/24 04:20:44;;;;;;;5.50;4.85;;;17.50;53.40;;;;;;4444537;32;20086;-74
2022/03/24 04:23:11;;;;;;;5.90;5.13;;;17.50;53.30;;;;;;4444750;32;20090;-73
2022/03/24 04:25:38;;;;;;;6.15;5.55;;;17.50;53.40;;;;;;4444810;32;20092;-74
2022/03/24 04:28:06;;;;;;;5.80;4.97;;;17.50;53.40;;;;;;4444763;32;20122;-74
2022/03/24 04:30:33;;;;;;;6.88;5.72;;;17.50;53.30;;;;;;4444523;32;20090;-73
2022/03/24 04:32:59;;;;;;;6.25;5.20;;;17.50;53.40;;;;;;4444487;32;20094;-74
2022/03/24 04:35:26;;;;;;;5.90;5.28;;;17.50;53.40;;;;;;4444870;32;20147;-74
2022/03/24 04:37:52;;;;;;;5.90;5.30;;;17.50;53.40;;;;;;4444714;32;20180;-73
2022/03/24 04:40:19;;;;;;;7.13;5.60;;;17.50;53.40;;;;;;4444691;32;20488;-73
2022/03/24 04:42:48;;;;;;;7.25;5.28;;;17.50;53.40;;;;;;4444734;32;20086;-74
2022/03/24 04:45:14;;;;;;;6.80;5.43;;;17.50;53.40;;;;;;4444689;32;20086;-73
2022/03/24 04:47:41;;;;;;;5.88;5.07;;;17.50;53.50;;;;;;4444747;32;20085;-73
2022/03/24 04:50:07;;;;;;;5.28;4.43;;;17.50;53.50;;;;;;4444608;32;20089;-73
2022/03/24 04:52:33;;;;;;;6.25;5.03;;;17.50;53.40;;;;;;4444683;32;20070;-74
2022/03/24 04:55:00;;;;;;;5.70;5.10;;;17.40;53.40;;;;;;4444285;32;20082;-74
2022/03/24 04:57:26;;;;;;;7.10;5.32;;;17.40;53.40;;;;;;4444543;32;20082;-74
2022/03/24 04:59:53;;;;;;;4.82;4.30;;;17.40;53.40;;;;;;4444367;32;20084;-73
2022/03/24 05:02:19;;;;;;;5.05;4.55;;;17.40;53.40;;;;;;4443149;32;20104;-73
2022/03/24 05:04:46;;;;;;;5.80;5.18;;;17.40;53.50;;;;;;4444544;32;20078;-73
2022/03/24 05:07:12;;;;;;;5.82;5.13;;;17.40;53.40;;;;;;4444373;32;20605;-73
2022/03/24 05:09:39;;;;;;;6.00;5.15;;;17.40;53.50;;;;;;4444196;32;20264;-74
2022/03/24 05:12:06;;;;;;;5.80;5.20;;;17.40;53.40;;;;;;4444533;32;20231;-73
2022/03/24 05:14:33;;;;;;;6.13;4.95;;;17.40;53.50;;;;;;4444679;32;20492;-74
2022/03/24 05:16:59;;;;;;;5.40;4.90;;;17.40;53.50;;;;;;4444528;32;20240;-73
2022/03/24 05:19:27;;;;;;;6.05;5.32;;;17.40;53.50;;;;;;4443347;32;20172;-74
2022/03/24 05:21:53;;;;;;;6.05;4.70;;;17.40;53.50;;;;;;4444165;32;20503;-73
2022/03/24 05:24:19;;;;;;;5.63;5.03;;;17.30;53.40;;;;;;4430361;32;20184;-73
2022/03/24 05:26:46;;;;;;;5.97;5.28;;;17.40;53.50;;;;;;4444511;32;20078;-73
2022/03/24 05:29:12;;;;;;;5.65;5.05;;;17.30;53.50;;;;;;4444400;32;20082;-73
2022/03/24 05:31:38;;;;;;;5.60;5.00;;;17.30;53.40;;;;;;4445330;32;20081;-74
2022/03/24 05:34:04;;;;;;;5.47;4.85;;;17.30;53.50;;;;;;4446634;32;20092;-73
2022/03/24 05:36:30;;;;;;;5.25;4.75;;;17.30;53.50;;;;;;4447152;32;20097;-73
2022/03/24 05:38:57;;;;;;;5.45;4.85;;;17.30;53.50;;;;;;4433082;32;20136;-73
2022/03/24 05:41:24;;;;;;;5.43;4.93;;;17.30;54.40;;;;;;4447147;32;20106;-74
2022/03/24 05:44:06;;;;;;;5.88;4.75;;;17.30;53.50;;;;;;4447063;32;20081;-73
2022/03/24 05:46:45;;;;;;;5.75;4.90;;;17.30;53.50;;;;;;4447175;32;20145;-73
2022/03/24 05:49:15;;;;;;;5.85;5.25;;;17.30;53.50;;;;;;4446604;32;20070;-73
2022/03/24 05:51:45;;;;;;;6.25;5.30;;;17.30;53.50;;;;;;4447000;32;20089;-74
2022/03/24 05:54:12;;;;;;;6.70;5.65;;;17.30;53.60;;;;;;4446893;32;20078;-73
2022/03/24 05:56:39;;;;;;;6.97;5.30;;;17.30;53.50;;;;;;4446897;32;20108;-74
2022/03/24 05:59:05;;;;;;;7.03;5.88;;;17.20;53.40;;;;;;4446551;32;20243;-73
2022/03/24 06:01:31;;;;;;;6.90;5.40;;;17.20;53.40;;;;;;4446817;32;20086;-73
2022/03/24 06:03:59;;;;;;;6.13;5.38;;;17.30;53.50;;;;;;4446332;32;20228;-73
2022/03/24 06:06:26;;;;;;;6.20;5.47;;;17.20;53.50;;;;;;4446564;32;20088;-74
2022/03/24 06:08:58;;;;;;;5.95;5.05;;;17.20;53.50;;;;;;4446494;32;20638;-73
2022/03/24 06:11:24;;;;;;;6.13;5.53;;;17.20;53.50;;;;;;4446538;32;20223;-73
2022/03/24 06:13:53;;;;;;;6.45;5.10;;;17.20;53.50;;;;;;4446384;32;20092;-73
2022/03/24 06:16:19;;;;;;;5.68;4.95;;;17.20;53.50;;;;;;4446492;32;20222;-74
2022/03/24 06:18:45;;;;;;;5.93;4.97;;;17.20;53.50;;;;;;4446710;32;20403;-73
2022/03/24 06:21:11;;;;;;;5.60;5.00;;;17.20;53.50;;;;;;4446600;32;20078;-73
2022/03/24 06:23:37;;;;;;;5.88;4.88;;;17.20;53.50;;;;;;4446388;32;20085;-74
2022/03/24 06:26:03;;;;;;;6.05;5.43;;;17.20;53.50;;;;;;4446418;32;20511;-74
2022/03/24 06:28:29;;;;;;;6.63;5.75;;;17.20;53.50;;;;;;4446427;32;20118;-74
2022/03/24 06:30:55;;;;;;;5.72;4.88;;;17.20;53.50;;;;;;4446269;32;20090;-73
2022/03/24 06:33:21;;;;;;;5.95;5.22;;;17.20;53.50;;;;;;4446002;32;20084;-73
2022/03/24 06:35:48;;;;;;;5.68;4.97;;;17.20;53.50;;;;;;4445328;32;20085;-72
2022/03/24 06:38:15;;;;;;;5.40;4.85;;;17.20;53.50;;;;;;4446253;32;20499;-74
2022/03/24 06:40:41;;;;;;;6.93;5.20;;;17.10;53.50;;;;;;4445903;32;20085;-73
2022/03/24 06:43:09;;;;;;;5.60;5.00;;;17.20;53.50;;;;;;4445153;32;20086;-73
2022/03/24 06:45:36;;;;;;;5.95;5.13;;;17.20;53.60;;;;;;4445089;32;20137;-73
2022/03/24 06:48:06;;;;;;;5.43;4.90;;;17.20;53.60;;;;;;4446009;32;20419;-73
2022/03/24 06:50:33;;;;;;;5.22;4.72;;;17.20;53.70;;;;;;4446212;32;20635;-74
2022/03/24 06:52:58;;;;;;;6.30;5.00;;;17.20;53.70;;;;;;4446093;32;20231;-74
2022/03/24 06:55:24;;;;;;;5.55;4.95;;;17.10;53.70;;;;;;4445791;32;20279;-73
2022/03/24 06:57:50;;;;;;;5.20;4.70;;;17.10;53.70;;;;;;4445990;32;20101;-73
2022/03/24 07:00:17;;;;;;;6.25;5.18;;;17.20;53.80;;;;;;4445823;32;20143;-73
2022/03/24 07:02:44;;;;;;;6.35;5.10;;;17.20;53.80;;;;;;4431691;32;20216;-73
2022/03/24 07:05:11;;;;;;;5.75;5.05;;;17.20;53.80;;;;;;4445753;32;20082;-73
2022/03/24 07:07:38;;;;;;;5.53;4.90;;;17.10;53.80;;;;;;4429224;32;20094;-73
2022/03/24 07:10:05;;;;;;;6.13;5.00;;;17.10;53.90;;;;;;4430144;32;20097;-73
2022/03/24 07:12:31;;;;;;;5.30;4.63;;;17.10;53.90;;;;;;4430265;32;20086;-73
2022/03/24 07:14:58;;;;;;;6.43;4.40;;;17.20;53.90;;;;;;4430051;32;20220;-74
2022/03/24 07:17:24;;;;;;;5.63;4.95;;;17.20;53.90;;;;;;4441865;32;20120;-73
2022/03/24 07:19:50;;;;;;;5.55;4.40;;;17.20;54.00;;;;;;4441800;32;20420;-73
2022/03/24 07:22:16;;;;;;;5.00;4.50;;;17.20;54.00;;;;;;4441974;32;20113;-73
2022/03/24 07:24:42;;;;;;;5.20;4.20;;;17.20;54.00;;;;;;4429931;32;20140;-73
2022/03/24 07:27:08;;;;;;;5.28;4.28;;;17.20;54.00;;;;;;4429978;32;20110;-73
2022/03/24 07:29:33;;;;;;;4.97;4.47;;;17.20;53.90;;;;;;4428647;32;20463;-73
2022/03/24 07:31:59;;;;;;;4.38;3.78;;;17.20;53.90;;;;;;4429981;32;20129;-73
2022/03/24 07:34:25;;;;;;;4.90;4.28;;;17.20;53.90;;;;;;4429689;32;20078;-73
2022/03/24 07:36:51;;;;;;;4.50;3.97;;;17.20;54.00;;;;;;4430183;32;20240;-73
2022/03/24 07:39:17;;;;;;;4.50;4.07;;;17.20;54.00;;;;;;4429987;32;20063;-73
2022/03/24 07:41:44;;;;;;;4.75;4.00;;;17.30;54.10;;;;;;4429925;32;20074;-73
2022/03/24 07:44:10;;;;;;;5.68;4.47;;;17.30;54.00;;;;;;4429781;32;20098;-73
2022/03/24 07:46:37;;;;;;;4.70;3.88;;;17.30;54.00;;;;;;4430042;32;20121;-74
2022/03/24 07:49:04;;;;;;;4.57;3.85;;;17.30;54.00;;;;;;4429819;32;20086;-73
2022/03/24 07:51:34;;;;;;;4.95;4.15;;;17.30;54.00;;;;;;4441430;32;20479;-73
2022/03/24 07:54:03;;;;;;;4.93;4.32;;;17.30;54.00;;;;;;4429486;32;20172;-73
2022/03/24 07:56:30;;;;;;;5.03;3.95;;;17.40;54.00;;;;;;4441570;32;20106;-73
2022/03/24 07:58:57;;;;;;;4.95;4.28;;;17.40;53.90;;;;;;4429840;32;20232;-73
2022/03/24 08:01:31;;;;;;;4.97;3.90;;;17.40;53.90;;;;;;4429752;32;20079;-73
2022/03/24 08:03:59;;;;;;;4.47;4.03;;;17.40;53.80;;;;;;4429285;32;20082;-73
2022/03/24 08:06:26;;;;;;;5.57;4.20;;;17.50;53.70;;;;;;4435761;32;20235;-73
2022/03/24 08:08:52;;;;;;;4.95;4.20;;;17.50;53.70;;;;;;4444782;32;20515;-73
2022/03/24 08:11:18;;;;;;;4.22;3.83;;;17.50;53.70;;;;;;4443697;32;20097;-73
2022/03/24 08:13:47;;;;;;;4.60;4.10;;;17.50;53.60;;;;;;4445162;32;20294;-73
2022/03/24 08:16:15;;;;;;;4.75;3.83;;;17.50;53.60;;;;;;4444712;32;20096;-73
2022/03/24 08:18:41;;;;;;;4.88;4.20;;;17.50;53.60;;;;;;4444926;32;20089;-73
2022/03/24 08:21:06;;;;;;;4.90;4.10;;;17.50;53.60;;;;;;4444852;32;20070;-73
2022/03/24 08:23:32;;;;;;;5.95;4.88;;;17.50;53.60;;;;;;4444761;32;20080;-73
2022/03/24 08:25:58;;;;;;;5.38;4.60;;;17.50;53.60;;;;;;4444930;32;20129;-73
2022/03/24 08:28:24;;;;;;;5.10;4.45;;;17.50;53.60;;;;;;4444575;32;20085;-73
2022/03/24 08:30:50;;;;;;;5.07;4.57;;;17.50;53.60;;;;;;4430955;32;20086;-73
2022/03/24 08:33:16;;;;;;;5.18;4.18;;;17.50;53.60;;;;;;4444270;32;20156;-73
2022/03/24 08:35:42;;;;;;;4.50;4.10;;;17.50;53.60;;;;;;4444824;32;20070;-73
2022/03/24 08:38:08;;;;;;;6.88;5.05;;;17.50;53.60;;;;;;4444700;32;20127;-73
2022/03/24 08:40:35;;;;;;;4.95;4.18;;;17.60;53.70;;;;;;4444818;32;20100;-73
2022/03/24 08:43:01;;;;;;;7.53;5.50;;;17.60;53.60;;;;;;4444345;32;20601;-73
2022/03/24 08:45:27;;;;;;;4.50;3.90;;;17.60;53.60;;;;;;4444790;32;20070;-73
2022/03/24 08:47:53;;;;;;;5.10;4.10;;;17.60;53.60;;;;;;4444701;32;20144;-72
2022/03/24 08:50:20;;;;;;;4.57;4.10;;;17.60;53.60;;;;;;4444825;32;20714;-73
2022/03/24 08:52:46;;;;;;;5.32;4.05;;;17.60;53.60;;;;;;4444640;32;20077;-73
2022/03/24 08:55:13;;;;;;;4.95;4.40;;;17.60;53.70;;;;;;4443608;32;20073;-73
2022/03/24 08:57:41;;;;;;;4.40;3.90;;;17.60;53.70;;;;;;4444737;32;20109;-73
2022/03/24 09:00:12;;;;;;;4.45;3.70;;;17.60;53.60;;;;;;4444558;32;20217;-72
2022/03/24 09:02:42;;;;;;;4.88;3.90;;;17.60;53.70;;;;;;4444527;32;20090;-73
2022/03/24 09:05:08;;;;;;;4.63;4.13;;;17.60;53.60;;;;;;4444532;32;20562;-73
2022/03/24 09:07:35;;;;;;;5.07;4.30;;;17.60;53.60;;;;;;4446428;32;20121;-73
2022/03/24 09:10:02;;;;;;;4.63;4.07;;;17.60;53.60;;;;;;4447604;32;20082;-73
2022/03/24 09:12:29;;;;;;;5.25;3.85;;;17.60;53.60;;;;;;4447681;32;20074;-72
2022/03/24 09:14:57;;;;;;;5.00;4.03;;;17.60;53.60;;;;;;4447619;32;20236;-72
2022/03/24 09:17:24;;;;;;;4.80;3.90;;;17.60;53.60;;;;;;4447525;32;20227;-73
2022/03/24 09:19:51;;;;;;;3.92;3.42;;;17.60;53.50;;;;;;4433440;32;20094;-73
2022/03/24 09:22:16;;;;;;;4.07;3.15;;;17.60;53.70;;;;;;4447717;32;20077;-73
2022/03/24 09:24:42;;;;;;;3.88;3.58;;;17.60;53.60;;;;;;4433602;32;20427;-73
2022/03/24 09:27:08;;;;;;;4.13;3.40;;;17.60;53.60;;;;;;4447594;32;20372;-73
2022/03/24 09:29:35;;;;;;;3.83;3.35;;;17.60;53.70;;;;;;4447414;32;20160;-73
2022/03/24 09:32:01;;;;;;;4.32;3.63;;;17.60;53.70;;;;;;4447253;32;20236;-72
2022/03/24 09:34:27;;;;;;;4.50;3.60;;;17.60;53.70;;;;;;4446807;32;20391;-73
2022/03/24 09:36:53;;;;;;;5.05;4.00;;;17.60;53.60;;;;;;4447216;32;20066;-72
2022/03/24 09:39:19;;;;;;;5.15;3.85;;;17.60;53.60;;;;;;4433320;32;20104;-73
2022/03/24 09:41:47;;;;;;;4.07;3.60;;;17.60;54.50;;;;;;4446947;32;20077;-73
2022/03/24 09:44:14;;;;;;;4.38;3.83;;;17.70;53.60;;;;;;4447045;32;20179;-73
2022/03/24 09:46:42;;;;;;;3.53;3.22;;;17.70;53.60;;;;;;4447088;32;20090;-73
2022/03/24 09:49:10;;;;;;;5.55;3.92;;;17.70;53.60;;;;;;4446696;32;20385;-73
2022/03/24 09:51:40;;;;;;;3.90;3.38;;;17.60;53.60;;;;;;4446799;32;20125;-73
2022/03/24 09:54:07;;;;;;;3.65;3.25;;;17.70;53.70;;;;;;4446789;32;20078;-73
2022/03/24 09:56:34;;;;;;;3.63;3.33;;;17.70;53.70;;;;;;4447064;32;20167;-73
2022/03/24 09:59:00;;;;;;;4.45;3.50;;;17.70;53.70;;;;;;4445589;32;20133;-72
2022/03/24 10:01:27;;;;;;;3.80;3.40;;;17.70;53.70;;;;;;4446823;32;20102;-73
2022/03/24 10:04:18;;;;;;;3.75;3.33;;;17.70;53.70;;;;;;4446596;32;20187;-73
2022/03/24 10:07:03;;;;;;;3.88;3.25;;;17.70;53.60;;;;;;4446803;32;20094;-73
2022/03/24 10:09:46;;;;;;;3.97;3.50;;;17.70;53.70;;;;;;4446501;32;20065;-73
2022/03/24 10:12:24;;;;;;;5.28;3.75;;;17.70;53.70;;;;;;4446551;32;20113;-73
2022/03/24 10:15:01;;;;;;;3.92;3.40;;;17.70;53.60;;;;;;4446409;32;20330;-73
2022/03/24 10:17:28;;;;;;;4.10;3.35;;;17.70;53.60;;;;;;4446469;32;20100;-73
2022/03/24 10:20:08;;;;;;;4.40;2.95;;;17.70;53.60;;;;;;4446340;32;20086;-73
2022/03/24 10:22:35;;;;;;;4.30;3.90;;;17.70;53.70;;;;;;4446647;32;20138;-73
2022/03/24 10:25:17;;;;;;;4.40;3.80;;;17.70;53.60;;;;;;4446431;32;20078;-73
2022/03/24 10:27:43;;;;;;;3.50;3.03;;;17.70;53.60;;;;;;4445550;32;20084;-73
2022/03/24 10:30:10;;;;;;;3.47;3.05;;;17.70;53.60;;;;;;4446464;32;20074;-73
2022/03/24 10:32:36;;;;;;;3.97;3.50;;;17.70;53.70;;;;;;4445044;32;20089;-72
2022/03/24 10:35:11;;;;;;;3.88;3.47;;;17.70;53.60;;;;;;4446066;32;20141;-73
2022/03/24 10:37:37;;;;;;;4.10;3.30;;;17.70;53.70;;;;;;4446245;32;20239;-73
2022/03/24 10:40:09;;;;;;;4.18;3.47;;;17.70;53.70;;;;;;4446354;32;20078;-73
2022/03/24 10:42:38;;;;;;;4.32;3.53;;;17.70;53.70;;;;;;4446295;32;20093;-73
2022/03/24 10:45:32;;;;;;;5.10;3.10;;;17.70;53.70;;;;;;4446204;32;20191;-73
2022/03/24 10:48:01;;;;;;;4.25;3.22;;;17.70;53.60;;;;;;4444797;32;20423;-73
2022/03/24 10:50:38;;;;;;;4.90;3.50;;;17.70;53.60;;;;;;4446049;32;20082;-73
2022/03/24 10:53:16;;;;;;;3.60;3.15;;;17.70;53.70;;;;;;4446168;32;20184;-73
2022/03/24 10:55:45;;;;;;;3.50;3.20;;;17.70;53.70;;;;;;4446129;32;20078;-73
2022/03/24 10:58:28;;;;;;;3.80;3.30;;;17.70;53.70;;;;;;4445723;32;20086;-73
2022/03/24 11:00:58;;;;;;;3.65;3.30;;;17.70;53.70;;;;;;4446088;32;20101;-73
2022/03/24 11:03:24;;;;;;;4.43;3.55;;;17.70;53.70;;;;;;4445499;32;20069;-72
2022/03/24 11:05:50;;;;;;;4.28;3.45;;;17.70;53.70;;;;;;4445897;32;20175;-73
2022/03/24 11:08:18;;;;;;;4.00;3.42;;;17.60;53.70;;;;;;4445432;32;20136;-72
2022/03/24 11:10:46;;;;;;;3.80;3.40;;;17.70;53.70;;;;;;4445799;32;20189;-73
2022/03/24 11:13:40;;;;;;;4.47;3.63;;;17.60;53.60;;;;;;4445660;32;20525;-73
2022/03/24 11:16:08;;;;;;;4.03;3.58;;;17.60;53.70;;;;;;4445909;32;20208;-73
2022/03/24 11:18:34;;;;;;;3.83;3.40;;;17.60;53.70;;;;;;4445474;32;20227;-73
2022/03/24 11:21:13;;;;;;;4.10;3.70;;;17.60;53.60;;;;;;4445657;32;20085;-73
2022/03/24 11:23:39;;;;;;;3.72;3.22;;;17.70;53.70;;;;;;4445727;32;20458;-73
2022/03/24 11:26:10;;;;;;;3.92;3.53;;;17.70;53.70;;;;;;4444589;32;20096;-72
2022/03/24 11:28:37;;;;;;;3.63;3.25;;;17.60;53.70;;;;;;4445549;32;20499;-73
2022/03/24 11:31:06;;;;;;;4.40;3.50;;;17.60;53.70;;;;;;4445290;32;20160;-72
2022/03/24 11:33:39;;;;;;;3.95;3.45;;;17.60;53.70;;;;;;4445165;32;20082;-73
2022/03/24 11:36:07;;;;;;;3.70;3.28;;;17.60;53.70;;;;;;4445633;32;20062;-73
2022/03/24 11:38:33;;;;;;;3.53;3.15;;;17.60;53.70;;;;;;4445505;32;20074;-73
2022/03/24 11:41:05;;;;;;;3.67;2.95;;;17.60;53.70;;;;;;4445384;32;20613;-72
2022/03/24 11:43:34;;;;;;;4.50;2.95;;;17.60;53.70;;;;;;4444962;32;20455;-73
2022/03/24 11:46:04;;;;;;;3.42;2.90;;;17.60;53.70;;;;;;4445234;32;20223;-73
2022/03/24 11:48:38;;;;;;;3.67;2.90;;;17.60;54.60;;;;;;4445469;32;20126;-73
2022/03/24 11:51:24;;;;;;;5.47;3.58;;;17.60;53.70;;;;;;4445470;32;20184;-73
2022/03/24 11:54:03;;;;;;;3.38;3.08;;;17.70;53.70;;;;;;4445472;32;20139;-73
2022/03/24 11:56:29;;;;;;;3.80;3.35;;;17.60;53.70;;;;;;4445324;32;20082;-73
2022/03/24 11:58:59;;;;;;;3.10;2.80;;;17.60;53.70;;;;;;4445095;32;20088;-73
2022/03/24 12:01:29;;;;;;;3.97;3.58;;;17.60;53.70;;;;;;4444926;32;20074;-73
2022/03/24 12:03:55;;;;;;;4.18;3.50;;;17.60;53.70;;;;;;4444660;32;20070;-73
2022/03/24 12:06:41;;;;;;;4.07;3.63;;;17.60;53.70;;;;;;4444576;32;20085;-73
2022/03/24 12:09:09;;;;;;;3.63;3.33;;;17.60;53.70;;;;;;4444955;32;20074;-73
2022/03/24 12:11:41;;;;;;;3.72;3.42;;;17.60;53.70;;;;;;4444979;32;20139;-73
2022/03/24 12:14:13;;;;;;;4.43;3.97;;;17.60;53.70;;;;;;4445048;32;20091;-73
2022/03/24 12:16:42;;;;;;;4.05;3.60;;;17.60;53.60;;;;;;4445216;32;20649;-73
2022/03/24 12:19:36;;;;;;;3.78;3.25;;;17.60;53.70;;;;;;4444588;32;20172;-73
2022/03/24 12:22:25;;;;;;;3.90;3.38;;;17.60;53.60;;;;;;4444644;32;20105;-73
2022/03/24 12:25:00;;;;;;;5.35;3.45;;;17.60;53.60;;;;;;4437531;32;20272;-73
2022/03/24 12:27:28;;;;;;;4.97;4.40;;;17.60;53.70;;;;;;4444886;32;20180;-73
2022/03/24 12:30:15;;;;;;;3.38;2.95;;;17.60;53.60;;;;;;4445045;32;20070;-73
2022/03/24 12:32:43;;;;;;;3.97;3.20;;;17.70;53.60;;;;;;4444211;32;20176;-73
2022/03/24 12:35:29;;;;;;;4.30;3.90;;;17.60;53.50;;;;;;4444472;32;20098;-73
2022/03/24 12:37:55;;;;;;;4.03;3.60;;;17.70;53.60;;;;;;4444641;32;20500;-73
2022/03/24 12:40:21;;;;;;;4.30;3.45;;;17.60;53.50;;;;;;4444723;32;20228;-73
2022/03/24 12:42:53;;;;;;;4.53;3.95;;;17.70;53.50;;;;;;4434056;32;20077;-73
2022/03/24 12:45:26;;;;;;;4.50;3.80;;;17.70;53.50;;;;;;4448074;32;20094;-73
2022/03/24 12:47:55;;;;;;;4.68;4.15;;;17.70;53.50;;;;;;4447941;32;20200;-73
2022/03/24 12:50:21;;;;;;;4.32;3.92;;;17.70;53.50;;;;;;4447480;32;20196;-73
2022/03/24 12:53:01;;;;;;;4.95;4.38;;;17.70;53.50;;;;;;4447737;32;20496;-73